createdAt,value
2022-10-08T00:00:30.598Z,10.63
2022-10-08T00:01:30.621Z,10.64
2022-10-08T00:02:30.573Z,10.67
2022-10-08T00:03:30.562Z,10.67
2022-10-08T00:04:30.642Z,10.68
2022-10-08T00:05:30.534Z,10.71
2022-10-08T00:06:30.526Z,10.71
2022-10-08T00:07:30.519Z,10.71
2022-10-08T00:08:30.498Z,10.71
2022-10-08T00:09:30.485Z,10.68
2022-10-08T00:10:30.470Z,10.68
2022-10-08T00:11:30.494Z,10.68
2022-10-08T00:12:30.444Z,10.68
2022-10-08T00:13:30.431Z,10.64
2022-10-08T00:14:30.418Z,10.63
2022-10-08T00:15:30.405Z,10.63
2022-10-08T00:16:30.518Z,10.63
2022-10-08T00:17:30.379Z,10.63
2022-10-08T00:18:30.373Z,10.60
2022-10-08T00:19:30.354Z,10.57
2022-10-08T00:20:30.341Z,10.57
2022-10-08T00:21:30.328Z,10.57
2022-10-08T00:22:30.314Z,10.59
2022-10-08T00:23:30.303Z,10.57
2022-10-08T00:24:30.292Z,10.54
2022-10-08T00:25:30.278Z,10.54
2022-10-08T00:26:30.263Z,10.56
2022-10-08T00:27:30.275Z,10.57
2022-10-08T00:28:30.339Z,10.57
2022-10-08T00:29:30.226Z,10.57
2022-10-08T00:30:30.409Z,10.57
2022-10-08T00:31:30.291Z,10.57
2022-10-08T00:32:30.187Z,10.57
2022-10-08T00:33:30.174Z,10.57
2022-10-08T00:34:30.170Z,10.57
2022-10-08T00:35:30.147Z,10.56
2022-10-08T00:36:30.136Z,10.57
2022-10-08T00:37:30.122Z,10.57
2022-10-08T00:38:30.112Z,10.57
2022-10-08T00:39:30.102Z,10.59
2022-10-08T00:40:30.083Z,10.59
2022-10-08T00:41:30.074Z,10.57
2022-10-08T00:42:30.061Z,10.59
2022-10-08T00:43:30.069Z,10.59
2022-10-08T00:44:30.049Z,10.56
2022-10-08T00:45:30.067Z,10.54
2022-10-08T00:46:30.007Z,10.54
2022-10-08T00:47:30.004Z,10.56
2022-10-08T00:48:29.984Z,10.54
2022-10-08T00:49:29.970Z,10.53
2022-10-08T00:50:29.953Z,10.53
2022-10-08T00:51:29.943Z,10.51
2022-10-08T00:52:29.932Z,10.49
2022-10-08T00:53:29.919Z,10.51
2022-10-08T00:54:29.904Z,10.49
2022-10-08T00:55:29.887Z,10.49
2022-10-08T00:56:29.877Z,10.49
2022-10-08T00:57:29.864Z,10.53
2022-10-08T00:58:29.850Z,10.53
2022-10-08T00:59:29.863Z,10.53
2022-10-08T01:00:29.939Z,10.53
2022-10-08T01:01:29.812Z,10.53
2022-10-08T01:02:29.890Z,10.49
2022-10-08T01:03:29.788Z,10.49
2022-10-08T01:05:21.927Z,10.48
2022-10-08T01:06:21.923Z,10.48
2022-10-08T01:07:21.902Z,10.49
2022-10-08T01:08:21.891Z,10.51
2022-10-08T01:09:21.875Z,10.46
2022-10-08T01:10:21.863Z,10.46
2022-10-08T01:11:21.853Z,10.48
2022-10-08T01:12:21.834Z,10.48
2022-10-08T01:13:21.824Z,10.49
2022-10-08T01:14:21.813Z,10.49
2022-10-08T01:15:21.821Z,10.46
2022-10-08T01:16:21.865Z,10.49
2022-10-08T01:17:21.775Z,10.46
2022-10-08T01:18:21.761Z,10.48
2022-10-08T01:21:08.911Z,10.48
2022-10-08T01:22:49.278Z,10.49
2022-10-08T01:23:48.968Z,10.49
2022-10-08T01:24:48.960Z,10.48
2022-10-08T01:25:48.944Z,10.48
2022-10-08T01:26:48.932Z,10.46
2022-10-08T01:27:48.917Z,10.46
2022-10-08T01:28:48.905Z,10.42
2022-10-08T01:29:48.893Z,10.41
2022-10-08T01:30:48.904Z,10.42
2022-10-08T01:31:49.002Z,10.38
2022-10-08T01:32:49.201Z,10.38
2022-10-08T01:33:48.843Z,10.37
2022-10-08T01:34:48.827Z,10.35
2022-10-08T01:35:48.814Z,10.37
2022-10-08T01:36:48.802Z,10.33
2022-10-08T01:37:48.789Z,10.31
2022-10-08T01:38:48.783Z,10.31
2022-10-08T01:39:48.761Z,10.31
2022-10-08T01:40:48.750Z,10.31
2022-10-08T01:41:48.737Z,10.31
2022-10-08T01:42:48.974Z,10.26
2022-10-08T01:43:48.711Z,10.25
2022-10-08T01:44:48.695Z,10.22
2022-10-08T01:45:48.772Z,10.22
2022-10-08T01:46:48.697Z,10.20
2022-10-08T01:47:48.657Z,10.22
2022-10-08T01:48:48.650Z,10.20
2022-10-08T01:49:48.632Z,10.20
2022-10-08T01:50:48.619Z,10.19
2022-10-08T01:51:48.619Z,10.17
2022-10-08T01:52:49.115Z,10.17
2022-10-08T01:53:48.580Z,10.17
2022-10-08T01:54:48.567Z,10.16
2022-10-08T01:55:48.555Z,10.16
2022-10-08T01:56:48.541Z,10.16
2022-10-08T01:57:48.532Z,10.16
2022-10-08T01:58:48.516Z,10.15
2022-10-08T01:59:48.500Z,10.13
2022-10-08T02:00:48.569Z,10.13
2022-10-08T02:01:48.539Z,10.13
2022-10-08T02:02:48.744Z,10.13
2022-10-08T02:03:48.451Z,10.13
2022-10-08T02:04:48.435Z,10.15
2022-10-08T02:05:48.423Z,10.15
2022-10-08T02:06:48.410Z,10.15
2022-10-08T02:07:48.397Z,10.16
2022-10-08T02:08:48.383Z,10.17
2022-10-08T02:09:48.380Z,10.17
2022-10-08T02:10:48.358Z,10.16
2022-10-08T02:11:48.347Z,10.16
2022-10-08T02:12:48.773Z,10.19
2022-10-08T02:13:48.321Z,10.17
2022-10-08T02:14:48.314Z,10.17
2022-10-08T02:15:48.294Z,10.17
2022-10-08T02:16:48.364Z,10.16
2022-10-08T02:17:48.268Z,10.13
2022-10-08T02:18:48.280Z,10.13
2022-10-08T02:19:48.243Z,10.12
2022-10-08T02:20:48.232Z,10.12
2022-10-08T02:21:48.222Z,10.09
2022-10-08T02:22:48.555Z,10.10
2022-10-08T02:23:48.190Z,10.09
2022-10-08T02:24:48.179Z,10.09
2022-10-08T02:25:48.163Z,10.10
2022-10-08T02:26:48.155Z,10.12
2022-10-08T02:27:48.136Z,10.10
2022-10-08T02:28:48.126Z,10.05
2022-10-08T02:29:48.109Z,10.05
2022-10-08T02:30:48.098Z,10.05
2022-10-08T02:31:48.185Z,10.05
2022-10-08T02:32:48.261Z,10.07
2022-10-08T02:33:48.060Z,10.07
2022-10-08T02:34:48.074Z,10.10
2022-10-08T02:35:48.037Z,10.10
2022-10-08T02:36:48.018Z,10.09
2022-10-08T02:37:48.014Z,10.05
2022-10-08T02:38:48.000Z,10.04
2022-10-08T02:39:47.984Z,10.04
2022-10-08T02:40:47.968Z,10.07
2022-10-08T02:41:47.960Z,10.09
2022-10-08T02:42:48.356Z,10.12
2022-10-08T02:43:47.937Z,10.12
2022-10-08T02:44:47.921Z,10.04
2022-10-08T02:45:47.952Z,10.04
2022-10-08T02:46:47.892Z,10.02
2022-10-08T02:47:47.879Z,10.05
2022-10-08T02:48:47.867Z,10.07
2022-10-08T02:49:47.853Z,10.09
2022-10-08T02:50:47.864Z,10.09
2022-10-08T02:51:47.832Z,10.10
2022-10-08T02:52:48.260Z,10.13
2022-10-08T02:53:47.798Z,10.16
2022-10-08T02:54:47.790Z,10.19
2022-10-08T02:55:47.778Z,10.20
2022-10-08T02:56:47.763Z,10.20
2022-10-08T02:57:47.748Z,10.22
2022-10-08T02:58:47.736Z,10.22
2022-10-08T02:59:47.727Z,10.23
2022-10-08T03:00:47.720Z,10.22
2022-10-08T03:01:47.697Z,10.19
2022-10-08T03:02:47.981Z,10.17
2022-10-08T03:03:47.675Z,10.16
2022-10-08T03:04:47.663Z,10.16
2022-10-08T03:05:47.647Z,10.19
2022-10-08T03:06:47.661Z,10.17
2022-10-08T03:07:47.624Z,10.17
2022-10-08T03:08:47.612Z,10.20
2022-10-08T03:09:47.600Z,10.20
2022-10-08T03:10:47.584Z,10.23
2022-10-08T03:11:47.568Z,10.25
2022-10-08T03:12:47.891Z,10.26
2022-10-08T03:13:47.544Z,10.28
2022-10-08T03:14:47.527Z,10.26
2022-10-08T03:15:47.520Z,10.28
2022-10-08T03:16:47.583Z,10.25
2022-10-08T03:17:47.491Z,10.23
2022-10-08T03:18:47.476Z,10.23
2022-10-08T03:19:47.658Z,10.23
2022-10-08T03:20:47.450Z,10.25
2022-10-08T03:21:47.441Z,10.25
2022-10-08T03:22:47.827Z,10.25
2022-10-08T03:23:47.414Z,10.23
2022-10-08T03:24:47.399Z,10.23
2022-10-08T03:25:47.385Z,10.23
2022-10-08T03:26:47.373Z,10.25
2022-10-08T03:27:47.360Z,10.25
2022-10-08T03:28:47.428Z,10.25
2022-10-08T03:29:47.531Z,10.25
2022-10-08T03:30:47.659Z,10.25
2022-10-08T03:31:47.311Z,10.22
2022-10-08T03:32:47.608Z,10.22
2022-10-08T03:33:47.286Z,10.20
2022-10-08T03:34:47.270Z,10.20
2022-10-08T03:35:47.261Z,10.17
2022-10-08T03:36:47.245Z,10.15
2022-10-08T03:37:47.234Z,10.15
2022-10-08T03:38:47.440Z,10.15
2022-10-08T03:39:47.210Z,10.13
2022-10-08T03:40:47.193Z,10.15
2022-10-08T03:41:47.181Z,10.13
2022-10-08T03:42:47.653Z,10.13
2022-10-08T03:43:47.158Z,10.13
2022-10-08T03:44:47.141Z,10.13
2022-10-08T03:45:47.160Z,10.12
2022-10-08T03:46:47.116Z,10.13
2022-10-08T03:47:47.104Z,10.15
2022-10-08T03:48:47.087Z,10.13
2022-10-08T03:49:47.081Z,10.15
2022-10-08T03:50:47.065Z,10.13
2022-10-08T03:51:47.049Z,10.15
2022-10-08T03:52:47.287Z,10.15
2022-10-08T03:53:47.023Z,10.13
2022-10-08T03:54:47.038Z,10.13
2022-10-08T03:55:46.997Z,10.15
2022-10-08T03:56:46.986Z,10.16
2022-10-08T03:57:46.971Z,10.16
2022-10-08T03:58:46.957Z,10.13
2022-10-08T03:59:46.946Z,10.12
2022-10-08T04:00:46.934Z,10.09
2022-10-08T04:01:46.981Z,10.07
2022-10-08T04:02:47.299Z,10.09
2022-10-08T04:03:47.090Z,10.12
2022-10-08T04:04:46.886Z,10.13
2022-10-08T04:05:46.869Z,10.16
2022-10-08T04:06:46.855Z,10.17
2022-10-08T04:07:46.843Z,10.17
2022-10-08T04:08:46.834Z,10.16
2022-10-08T04:09:46.818Z,10.12
2022-10-08T04:10:46.828Z,10.07
2022-10-08T04:11:46.790Z,10.01
2022-10-08T04:12:47.094Z,9.99
2022-10-08T04:13:46.769Z,10.04
2022-10-08T04:14:46.752Z,10.02
2022-10-08T04:15:46.776Z,10.05
2022-10-08T04:16:46.732Z,10.07
2022-10-08T04:17:46.712Z,10.09
2022-10-08T04:18:46.700Z,10.09
2022-10-08T04:19:46.690Z,10.07
2022-10-08T04:20:46.675Z,10.09
2022-10-08T04:21:46.665Z,10.10
2022-10-08T04:22:46.983Z,10.10
2022-10-08T04:23:46.640Z,10.12
2022-10-08T04:24:46.620Z,10.12
2022-10-08T04:25:46.610Z,10.15
2022-10-08T04:26:46.622Z,10.15
2022-10-08T04:27:46.583Z,10.13
2022-10-08T04:28:46.665Z,10.09
2022-10-08T04:29:46.557Z,10.07
2022-10-08T04:30:46.589Z,10.05
2022-10-08T04:31:46.540Z,10.09
2022-10-08T04:32:46.795Z,10.10
2022-10-08T04:33:46.507Z,10.09
2022-10-08T04:34:46.492Z,10.10
2022-10-08T04:35:46.479Z,10.13
2022-10-08T04:36:46.469Z,10.15
2022-10-08T04:37:46.454Z,10.16
2022-10-08T04:38:46.442Z,10.16
2022-10-08T04:39:46.429Z,10.16
2022-10-08T04:40:46.415Z,10.17
2022-10-08T04:41:46.403Z,10.17
2022-10-08T04:42:46.728Z,10.20
2022-10-08T04:43:46.377Z,10.20
2022-10-08T04:44:46.368Z,10.17
2022-10-08T04:45:46.354Z,10.17
2022-10-08T04:46:46.437Z,10.19
2022-10-08T04:47:46.346Z,10.20
2022-10-08T04:48:46.310Z,10.23
2022-10-08T04:49:46.297Z,10.22
2022-10-08T04:50:46.285Z,10.23
2022-10-08T04:51:46.271Z,10.23
2022-10-08T04:52:46.547Z,10.25
2022-10-08T04:53:46.246Z,10.23
2022-10-08T04:54:46.236Z,10.22
2022-10-08T04:55:46.220Z,10.20
2022-10-08T04:56:46.238Z,10.17
2022-10-08T04:57:46.193Z,10.17
2022-10-08T04:58:46.206Z,10.17
2022-10-08T05:00:06.080Z,10.17
2022-10-08T05:00:47.186Z,10.19
2022-10-08T05:01:46.208Z,10.20
2022-10-08T05:02:46.540Z,10.20
2022-10-08T05:03:46.116Z,10.19
2022-10-08T05:04:46.103Z,10.19
2022-10-08T05:05:46.092Z,10.19
2022-10-08T05:06:46.081Z,10.19
2022-10-08T05:07:46.065Z,10.20
2022-10-08T05:08:46.052Z,10.17
2022-10-08T05:09:46.039Z,10.16
2022-10-08T05:10:46.031Z,10.16
2022-10-08T05:11:46.020Z,10.16
2022-10-08T05:12:46.360Z,10.16
2022-10-08T05:13:45.988Z,10.15
2022-10-08T05:14:45.998Z,10.13
2022-10-08T05:15:46.086Z,10.13
2022-10-08T05:16:45.953Z,10.15
2022-10-08T05:17:45.934Z,10.15
2022-10-08T05:18:45.929Z,10.15
2022-10-08T05:19:45.905Z,10.13
2022-10-08T05:20:45.897Z,10.15
2022-10-08T05:21:46.077Z,10.15
2022-10-08T05:22:46.086Z,10.16
2022-10-08T05:23:45.856Z,10.17
2022-10-08T05:24:45.843Z,10.19
2022-10-08T05:25:45.833Z,10.20
2022-10-08T05:26:58.008Z,10.20
2022-10-08T05:27:46.838Z,10.22
2022-10-08T05:28:45.812Z,10.20
2022-10-08T05:29:45.780Z,10.20
2022-10-08T05:30:45.832Z,10.20
2022-10-08T05:31:45.754Z,10.22
2022-10-08T05:32:46.103Z,10.23
2022-10-08T05:33:45.730Z,10.22
2022-10-08T05:34:45.716Z,10.23
2022-10-08T05:35:45.703Z,10.25
2022-10-08T05:36:45.697Z,10.23
2022-10-08T05:37:45.677Z,10.23
2022-10-08T05:38:45.668Z,10.22
2022-10-08T05:39:45.651Z,10.22
2022-10-08T05:40:45.639Z,10.23
2022-10-08T05:41:45.626Z,10.25
2022-10-08T05:42:46.016Z,10.25
2022-10-08T05:43:45.600Z,10.28
2022-10-08T05:44:45.706Z,10.30
2022-10-08T05:45:45.574Z,10.30
2022-10-08T05:46:45.738Z,10.30
2022-10-08T05:47:45.548Z,10.33
2022-10-08T05:48:45.540Z,10.33
2022-10-08T05:49:45.524Z,10.34
2022-10-08T05:50:45.508Z,10.35
2022-10-08T05:51:45.499Z,10.37
2022-10-08T05:52:45.742Z,10.37
2022-10-08T05:53:45.468Z,10.35
2022-10-08T05:54:45.457Z,10.35
2022-10-08T05:55:45.441Z,10.38
2022-10-08T05:56:45.433Z,10.40
2022-10-08T05:57:45.420Z,10.41
2022-10-08T05:58:45.403Z,10.42
2022-10-08T05:59:45.589Z,10.46
2022-10-08T06:00:45.379Z,10.48
2022-10-08T06:01:45.365Z,10.49
2022-10-08T06:02:45.797Z,10.51
2022-10-08T06:03:45.340Z,10.53
2022-10-08T06:04:45.385Z,10.49
2022-10-08T06:05:45.317Z,10.51
2022-10-08T06:06:45.301Z,10.53
2022-10-08T06:07:45.289Z,10.54
2022-10-08T06:08:45.279Z,10.56
2022-10-08T06:09:45.261Z,10.59
2022-10-08T06:10:45.250Z,10.59
2022-10-08T06:11:45.238Z,10.59
2022-10-08T06:12:45.650Z,10.57
2022-10-08T06:13:45.210Z,10.59
2022-10-08T06:14:45.196Z,10.59
2022-10-08T06:15:45.352Z,10.59
2022-10-08T06:16:45.174Z,10.59
2022-10-08T06:17:45.161Z,10.60
2022-10-08T06:18:45.167Z,10.61
2022-10-08T06:19:45.132Z,10.61
2022-10-08T06:20:45.119Z,10.63
2022-10-08T06:21:45.112Z,10.67
2022-10-08T06:22:45.443Z,10.68
2022-10-08T06:23:45.082Z,10.69
2022-10-08T06:24:45.069Z,10.68
2022-10-08T06:25:45.054Z,10.71
2022-10-08T06:26:45.047Z,10.71
2022-10-08T06:27:45.030Z,10.75
2022-10-08T06:28:45.081Z,10.79
2022-10-08T06:29:45.000Z,10.82
2022-10-08T06:30:44.991Z,10.86
2022-10-08T06:31:45.079Z,10.86
2022-10-08T06:32:45.367Z,10.87
2022-10-08T06:33:44.948Z,10.92
2022-10-08T06:34:44.962Z,10.94
2022-10-08T06:35:44.926Z,10.96
2022-10-08T06:36:44.920Z,10.99
2022-10-08T06:37:44.897Z,11.05
2022-10-08T06:38:44.887Z,11.08
2022-10-08T06:39:48.258Z,11.12
2022-10-08T06:40:44.858Z,11.17
2022-10-08T06:41:44.861Z,11.18
2022-10-08T06:42:45.200Z,11.18
2022-10-08T06:43:44.820Z,11.23
2022-10-08T06:44:44.809Z,11.33
2022-10-08T06:45:44.791Z,11.51
2022-10-08T06:46:44.830Z,11.69
2022-10-08T06:47:44.765Z,11.80
2022-10-08T06:48:44.757Z,11.88
2022-10-08T06:49:44.742Z,11.86
2022-10-08T06:50:44.754Z,11.90
2022-10-08T06:51:44.720Z,11.97
2022-10-08T06:52:45.176Z,12.06
2022-10-08T06:53:44.721Z,12.09
2022-10-08T06:54:44.679Z,12.10
2022-10-08T06:55:44.665Z,12.04
2022-10-08T06:56:44.649Z,12.02
2022-10-08T06:57:44.648Z,11.99
2022-10-08T06:58:44.630Z,11.94
2022-10-08T06:59:44.616Z,11.91
2022-10-08T07:00:44.672Z,11.94
2022-10-08T07:01:44.719Z,11.91
2022-10-08T07:02:44.954Z,11.88
2022-10-08T07:03:44.563Z,11.88
2022-10-08T07:04:44.546Z,11.90
2022-10-08T07:05:44.547Z,11.88
2022-10-08T07:06:44.543Z,11.83
2022-10-08T07:07:44.509Z,11.80
2022-10-08T07:08:44.499Z,11.80
2022-10-08T07:09:44.483Z,11.81
2022-10-08T07:10:44.469Z,11.81
2022-10-08T07:11:44.457Z,11.83
2022-10-08T07:12:44.821Z,11.83
2022-10-08T07:13:44.433Z,11.81
2022-10-08T07:14:44.429Z,11.81
2022-10-08T07:15:44.418Z,11.81
2022-10-08T07:16:44.524Z,11.83
2022-10-08T07:17:44.388Z,11.84
2022-10-08T07:18:44.374Z,11.81
2022-10-08T07:19:44.358Z,11.81
2022-10-08T07:20:44.342Z,11.81
2022-10-08T07:21:44.327Z,11.80
2022-10-08T07:22:44.787Z,11.81
2022-10-08T07:23:44.304Z,11.83
2022-10-08T07:24:44.292Z,11.86
2022-10-08T07:25:44.276Z,11.86
2022-10-08T07:26:44.262Z,11.88
2022-10-08T07:27:45.125Z,11.90
2022-10-08T07:28:44.317Z,11.94
2022-10-08T07:29:44.224Z,11.95
2022-10-08T07:30:44.210Z,11.99
2022-10-08T07:31:44.272Z,12.00
2022-10-08T07:32:44.527Z,12.00
2022-10-08T07:33:44.399Z,12.03
2022-10-08T07:34:44.161Z,12.06
2022-10-08T07:35:44.151Z,12.10
2022-10-08T07:36:44.150Z,12.13
2022-10-08T07:37:44.119Z,12.12
2022-10-08T07:38:44.141Z,12.15
2022-10-08T07:39:44.093Z,12.17
2022-10-08T07:40:44.083Z,12.17
2022-10-08T07:41:44.074Z,12.17
2022-10-08T07:42:44.406Z,12.21
2022-10-08T07:43:44.045Z,12.21
2022-10-08T07:44:44.038Z,12.24
2022-10-08T07:45:44.031Z,12.27
2022-10-08T07:46:44.011Z,12.29
2022-10-08T07:47:43.992Z,12.32
2022-10-08T07:48:43.981Z,12.39
2022-10-08T07:49:43.965Z,12.43
2022-10-08T07:50:43.956Z,12.49
2022-10-08T07:51:43.940Z,12.54
2022-10-08T07:52:43.930Z,12.60
2022-10-08T07:53:43.922Z,12.62
2022-10-08T07:54:43.924Z,12.68
2022-10-08T07:55:43.885Z,12.73
2022-10-08T07:56:43.878Z,12.75
2022-10-08T07:57:43.863Z,12.76
2022-10-08T07:58:43.846Z,12.80
2022-10-08T07:59:43.841Z,12.83
2022-10-08T08:00:43.886Z,12.87
2022-10-08T08:01:43.901Z,12.91
2022-10-08T08:02:43.806Z,12.95
2022-10-08T08:03:43.779Z,13.01
2022-10-08T08:04:43.774Z,13.09
2022-10-08T08:05:43.757Z,13.15
2022-10-08T08:06:43.746Z,13.19
2022-10-08T08:07:43.734Z,13.23
2022-10-08T08:08:43.724Z,13.27
2022-10-08T08:09:43.709Z,13.30
2022-10-08T08:10:43.719Z,13.33
2022-10-08T08:11:43.678Z,13.35
2022-10-08T08:12:43.702Z,13.41
2022-10-08T08:13:43.663Z,13.42
2022-10-08T08:14:43.649Z,13.44
2022-10-08T08:15:43.628Z,13.47
2022-10-08T08:16:43.662Z,13.52
2022-10-08T08:17:43.611Z,13.54
2022-10-08T08:18:43.591Z,13.57
2022-10-08T08:19:43.578Z,13.60
2022-10-08T08:20:43.563Z,13.60
2022-10-08T08:21:43.552Z,13.63
2022-10-08T08:22:43.608Z,13.65
2022-10-08T08:23:43.527Z,13.70
2022-10-08T08:24:43.515Z,13.71
2022-10-08T08:25:43.500Z,13.75
2022-10-08T08:26:43.509Z,13.77
2022-10-08T08:27:43.473Z,13.77
2022-10-08T08:28:43.541Z,13.79
2022-10-08T08:29:43.447Z,13.81
2022-10-08T08:30:43.435Z,13.85
2022-10-08T08:31:43.699Z,13.87
2022-10-08T08:32:43.417Z,13.89
2022-10-08T08:33:43.401Z,13.90
2022-10-08T08:34:43.389Z,13.92
2022-10-08T08:35:43.369Z,13.93
2022-10-08T08:36:43.354Z,13.93
2022-10-08T08:37:43.348Z,13.97
2022-10-08T08:38:43.329Z,13.99
2022-10-08T08:39:43.317Z,14.00
2022-10-08T08:40:43.304Z,14.03
2022-10-08T08:41:43.295Z,14.04
2022-10-08T08:42:43.305Z,14.05
2022-10-08T08:43:43.267Z,14.08
2022-10-08T08:44:43.254Z,14.11
2022-10-08T08:45:47.614Z,14.12
2022-10-08T08:46:43.332Z,14.15
2022-10-08T08:47:43.213Z,14.18
2022-10-08T08:48:43.204Z,14.17
2022-10-08T08:49:43.192Z,14.20
2022-10-08T08:50:47.912Z,14.23
2022-10-08T08:51:43.356Z,14.26
2022-10-08T08:52:43.149Z,14.29
2022-10-08T08:53:43.138Z,14.30
2022-10-08T08:54:43.119Z,14.35
2022-10-08T08:55:43.109Z,14.36
2022-10-08T08:56:43.094Z,14.37
2022-10-08T08:57:43.081Z,14.40
2022-10-08T08:58:43.096Z,14.40
2022-10-08T08:59:43.055Z,14.40
2022-10-08T09:00:43.057Z,14.41
2022-10-08T09:01:43.028Z,14.41
2022-10-08T09:02:43.014Z,14.41
2022-10-08T09:03:43.010Z,14.41
2022-10-08T09:04:45.242Z,14.41
2022-10-08T09:05:43.088Z,14.43
2022-10-08T09:06:42.966Z,14.45
2022-10-08T09:07:42.953Z,14.48
2022-10-08T09:08:42.940Z,14.51
2022-10-08T09:09:42.926Z,14.54
2022-10-08T09:10:42.912Z,14.58
2022-10-08T09:11:42.898Z,14.63
2022-10-08T09:12:42.888Z,14.66
2022-10-08T09:13:42.869Z,14.73
2022-10-08T09:14:42.887Z,14.78
2022-10-08T09:15:42.849Z,14.82
2022-10-08T09:16:42.897Z,14.85
2022-10-08T09:17:42.819Z,14.92
2022-10-08T09:18:42.806Z,14.91
2022-10-08T09:19:42.797Z,14.92
2022-10-08T09:20:42.784Z,14.92
2022-10-08T09:21:42.768Z,14.91
2022-10-08T09:22:42.758Z,14.94
2022-10-08T09:23:42.750Z,14.94
2022-10-08T09:24:42.733Z,14.96
2022-10-08T09:25:42.721Z,14.99
2022-10-08T09:26:42.709Z,14.99
2022-10-08T09:27:42.686Z,15.00
2022-10-08T09:28:42.798Z,15.04
2022-10-08T09:29:42.665Z,15.06
2022-10-08T09:30:42.753Z,15.07
2022-10-08T09:31:42.640Z,15.09
2022-10-08T09:32:42.623Z,15.10
2022-10-08T09:33:42.610Z,15.11
2022-10-08T09:34:42.599Z,15.15
2022-10-08T09:35:42.587Z,15.15
2022-10-08T09:36:42.568Z,15.18
2022-10-08T09:37:42.560Z,15.22
2022-10-08T09:38:42.542Z,15.19
2022-10-08T09:39:42.532Z,15.21
2022-10-08T09:40:42.515Z,15.18
2022-10-08T09:41:42.505Z,15.17
2022-10-08T09:42:42.495Z,15.14
2022-10-08T09:43:42.478Z,15.10
2022-10-08T09:44:42.470Z,15.10
2022-10-08T09:45:42.496Z,15.07
2022-10-08T09:46:42.464Z,15.07
2022-10-08T09:47:42.433Z,15.09
2022-10-08T09:48:42.416Z,15.06
2022-10-08T09:49:42.408Z,15.03
2022-10-08T09:50:42.388Z,14.99
2022-10-08T09:51:42.376Z,15.00
2022-10-08T09:52:42.375Z,14.97
2022-10-08T09:53:42.352Z,14.94
2022-10-08T09:54:42.532Z,14.92
2022-10-08T09:55:42.322Z,14.91
2022-10-08T09:56:42.308Z,14.91
2022-10-08T09:57:43.902Z,14.89
2022-10-08T09:58:42.290Z,14.88
2022-10-08T09:59:42.269Z,14.86
2022-10-08T10:00:42.260Z,14.86
2022-10-08T10:01:42.329Z,14.85
2022-10-08T10:02:42.259Z,14.85
2022-10-08T10:03:42.244Z,14.84
2022-10-08T10:04:42.206Z,14.81
2022-10-08T10:05:42.194Z,14.81
2022-10-08T10:06:42.378Z,14.78
2022-10-08T10:07:42.170Z,14.77
2022-10-08T10:08:42.154Z,14.77
2022-10-08T10:09:42.141Z,14.78
2022-10-08T10:10:42.130Z,14.77
2022-10-08T10:11:42.121Z,14.73
2022-10-08T10:12:42.102Z,14.73
2022-10-08T10:13:42.090Z,14.73
2022-10-08T10:14:42.073Z,14.73
2022-10-08T10:15:42.060Z,14.73
2022-10-08T10:16:42.125Z,14.78
2022-10-08T10:17:42.033Z,14.81
2022-10-08T10:18:42.044Z,14.81
2022-10-08T10:19:42.011Z,14.84
2022-10-08T10:20:42.004Z,14.84
2022-10-08T10:21:41.981Z,14.85
2022-10-08T10:22:41.972Z,14.86
2022-10-08T10:23:41.956Z,14.88
2022-10-08T10:24:41.946Z,14.88
2022-10-08T10:25:41.946Z,14.88
2022-10-08T10:26:41.923Z,14.88
2022-10-08T10:27:41.904Z,14.89
2022-10-08T10:28:41.983Z,14.89
2022-10-08T10:29:41.879Z,14.91
2022-10-08T10:30:41.937Z,14.92
2022-10-08T10:31:41.853Z,14.92
2022-10-08T10:32:41.844Z,14.94
2022-10-08T10:33:41.827Z,14.99
2022-10-08T10:34:41.841Z,15.00
2022-10-08T10:35:41.803Z,14.99
2022-10-08T10:36:41.784Z,15.03
2022-10-08T10:37:41.774Z,15.07
2022-10-08T10:38:43.273Z,15.09
2022-10-08T10:39:41.746Z,15.11
2022-10-08T10:40:41.733Z,15.17
2022-10-08T10:41:41.720Z,15.11
2022-10-08T10:42:41.711Z,15.14
2022-10-08T10:43:41.700Z,15.14
2022-10-08T10:44:41.682Z,15.14
2022-10-08T10:45:41.676Z,15.15
2022-10-08T10:46:41.658Z,15.14
2022-10-08T10:47:41.643Z,15.15
2022-10-08T10:48:41.632Z,15.10
2022-10-08T10:49:41.620Z,15.11
2022-10-08T10:50:41.641Z,15.11
2022-10-08T10:51:41.592Z,15.11
2022-10-08T10:52:41.578Z,15.14
2022-10-08T10:53:41.567Z,15.10
2022-10-08T10:54:41.553Z,15.14
2022-10-08T10:55:41.539Z,15.15
2022-10-08T10:56:41.524Z,15.15
2022-10-08T10:57:41.518Z,15.19
2022-10-08T10:58:41.498Z,15.18
2022-10-08T10:59:41.488Z,15.19
2022-10-08T11:00:41.473Z,15.22
2022-10-08T11:01:41.536Z,15.22
2022-10-08T11:02:41.522Z,15.21
2022-10-08T11:03:41.435Z,15.21
2022-10-08T11:04:41.435Z,15.21
2022-10-08T11:05:41.409Z,15.21
2022-10-08T11:06:41.419Z,15.24
2022-10-08T11:07:41.579Z,15.24
2022-10-08T11:08:41.367Z,15.24
2022-10-08T11:09:41.354Z,15.24
2022-10-08T11:10:41.354Z,15.24
2022-10-08T11:11:41.332Z,15.24
2022-10-08T11:12:41.325Z,15.25
2022-10-08T11:13:41.302Z,15.22
2022-10-08T11:14:41.294Z,15.22
2022-10-08T11:15:41.337Z,15.22
2022-10-08T11:16:41.264Z,15.19
2022-10-08T11:17:41.252Z,15.22
2022-10-08T11:18:41.234Z,15.21
2022-10-08T11:19:41.225Z,15.21
2022-10-08T11:20:41.209Z,15.21
2022-10-08T11:21:41.199Z,15.22
2022-10-08T11:22:41.206Z,15.21
2022-10-08T11:23:41.174Z,15.24
2022-10-08T11:24:41.157Z,15.25
2022-10-08T11:26:09.909Z,15.28
2022-10-08T11:26:42.162Z,15.29
2022-10-08T11:27:41.123Z,15.33
2022-10-08T11:28:41.135Z,15.31
2022-10-08T11:29:41.090Z,15.35
2022-10-08T11:30:41.164Z,15.35
2022-10-08T11:31:41.089Z,15.35
2022-10-08T11:32:41.059Z,15.35
2022-10-08T11:33:41.039Z,15.36
2022-10-08T11:34:41.033Z,15.37
2022-10-08T11:35:41.209Z,15.36
2022-10-08T11:36:41.001Z,15.37
2022-10-08T11:37:40.986Z,15.37
2022-10-08T11:38:40.993Z,15.40
2022-10-08T11:39:40.964Z,15.40
2022-10-08T11:40:40.946Z,15.42
2022-10-08T11:41:40.939Z,15.43
2022-10-08T11:42:44.998Z,15.44
2022-10-08T11:43:41.943Z,15.49
2022-10-08T11:44:40.901Z,15.51
2022-10-08T11:45:40.882Z,15.51
2022-10-08T11:46:40.909Z,15.54
2022-10-08T11:47:41.054Z,15.52
2022-10-08T11:48:40.844Z,15.54
2022-10-08T11:49:40.838Z,15.55
2022-10-08T11:50:40.817Z,15.55
2022-10-08T11:51:40.806Z,15.57
2022-10-08T11:52:40.795Z,15.55
2022-10-08T11:53:40.778Z,15.52
2022-10-08T11:54:40.788Z,15.51
2022-10-08T11:55:40.749Z,15.51
2022-10-08T11:56:40.743Z,15.49
2022-10-08T11:58:06.636Z,15.47
2022-10-08T11:58:41.749Z,15.47
2022-10-08T11:59:40.701Z,15.44
2022-10-08T12:00:40.731Z,15.43
2022-10-08T12:01:40.675Z,15.36
2022-10-08T12:02:40.798Z,15.33
2022-10-08T12:03:40.741Z,15.28
2022-10-08T12:04:40.633Z,15.25
2022-10-08T12:05:40.628Z,15.24
2022-10-08T12:06:40.608Z,15.21
2022-10-08T12:07:40.590Z,15.19
2022-10-08T12:08:40.585Z,15.19
2022-10-08T12:09:40.572Z,15.18
2022-10-08T12:10:40.579Z,15.17
2022-10-08T12:11:40.544Z,15.17
2022-10-08T12:12:40.533Z,15.15
2022-10-08T12:13:40.518Z,15.15
2022-10-08T12:14:40.504Z,15.14
2022-10-08T12:15:40.566Z,15.14
2022-10-08T12:16:40.476Z,15.11
2022-10-08T12:17:40.466Z,15.10
2022-10-08T12:18:40.456Z,15.10
2022-10-08T12:19:40.436Z,15.11
2022-10-08T12:20:40.423Z,15.10
2022-10-08T12:21:40.412Z,15.11
2022-10-08T12:22:40.399Z,15.11
2022-10-08T12:23:40.391Z,15.10
2022-10-08T12:24:40.377Z,15.09
2022-10-08T12:25:40.359Z,15.09
2022-10-08T12:26:40.381Z,15.14
2022-10-08T12:27:40.333Z,15.14
2022-10-08T12:28:40.387Z,15.15
2022-10-08T12:29:40.306Z,15.18
2022-10-08T12:30:40.290Z,15.22
2022-10-08T12:31:40.399Z,15.28
2022-10-08T12:32:40.267Z,15.31
2022-10-08T12:33:40.258Z,15.37
2022-10-08T12:34:40.246Z,15.39
2022-10-08T12:35:40.232Z,15.43
2022-10-08T12:36:40.216Z,15.49
2022-10-08T12:37:40.203Z,15.58
2022-10-08T12:38:40.189Z,15.61
2022-10-08T12:39:40.173Z,15.72
2022-10-08T12:40:40.166Z,15.73
2022-10-08T12:41:40.148Z,15.75
2022-10-08T12:42:40.155Z,15.76
2022-10-08T12:43:40.123Z,15.77
2022-10-08T12:44:40.115Z,15.79
2022-10-08T12:45:40.097Z,15.76
2022-10-08T12:46:40.204Z,15.79
2022-10-08T12:47:40.078Z,15.82
2022-10-08T12:48:40.056Z,15.84
2022-10-08T12:49:40.044Z,15.84
2022-10-08T12:50:40.037Z,15.86
2022-10-08T12:51:40.024Z,15.90
2022-10-08T12:52:40.005Z,15.98
2022-10-08T12:53:39.997Z,16.01
2022-10-08T12:54:39.986Z,15.94
2022-10-08T12:55:39.976Z,15.97